createdAt,value
2017-12-16T00:00:50.930Z,0
2017-12-16T00:01:50.666Z,0
2017-12-16T00:02:50.901Z,0
2017-12-16T00:03:50.360Z,0
2017-12-16T00:04:50.896Z,0
2017-12-16T00:05:50.863Z,0
2017-12-16T00:06:54.959Z,0
2017-12-16T00:07:51.151Z,0
2017-12-16T00:08:50.826Z,0
2017-12-16T00:09:50.261Z,0
2017-12-16T00:10:50.794Z,0
2017-12-16T00:11:50.178Z,0
2017-12-16T00:12:50.176Z,0
2017-12-16T00:13:50.438Z,0
2017-12-16T00:14:50.707Z,0
2017-12-16T00:15:50.774Z,0
2017-12-16T00:16:50.387Z,0
2017-12-16T00:17:50.375Z,0
2017-12-16T00:18:50.356Z,0
2017-12-16T00:19:50.065Z,0
2017-12-16T00:20:50.604Z,0
2017-12-16T00:21:50.874Z,0
2017-12-16T00:22:50.851Z,0
2017-12-16T00:23:50.287Z,0
2017-12-16T00:24:50.302Z,0
2017-12-16T00:25:50.235Z,0
2017-12-16T00:26:50.254Z,0
2017-12-16T00:27:49.912Z,0
2017-12-16T00:28:49.918Z,0
2017-12-16T00:29:50.728Z,0
2017-12-16T00:30:50.477Z,0
2017-12-16T00:31:50.393Z,0
2017-12-16T00:32:50.106Z,0
2017-12-16T00:33:49.797Z,0
2017-12-16T00:34:50.361Z,0
2017-12-16T00:35:50.952Z,0
2017-12-16T00:36:50.019Z,0
2017-12-16T00:37:50.285Z,0
2017-12-16T00:38:50.170Z,0
2017-12-16T00:39:50.253Z,0
2017-12-16T00:40:49.691Z,0
2017-12-16T00:41:50.203Z,0
2017-12-16T00:42:50.205Z,0
2017-12-16T00:43:50.483Z,0
2017-12-16T00:44:50.152Z,0
2017-12-16T00:45:50.423Z,0
2017-12-16T00:46:49.885Z,0
2017-12-16T00:47:49.590Z,0
2017-12-16T00:48:49.818Z,0
2017-12-16T00:49:49.524Z,0
2017-12-16T00:50:50.333Z,0
2017-12-16T00:51:49.758Z,0
2017-12-16T00:52:49.736Z,0
2017-12-16T00:53:49.756Z,0
2017-12-16T00:54:49.712Z,0
2017-12-16T00:55:49.957Z,0
2017-12-16T00:56:49.672Z,0
2017-12-16T00:57:49.935Z,0
2017-12-16T00:58:49.642Z,0
2017-12-16T00:59:50.167Z,0
2017-12-16T01:00:49.357Z,0
2017-12-16T01:01:49.326Z,0
2017-12-16T01:02:49.627Z,0
2017-12-16T01:03:49.831Z,0
2017-12-16T01:04:49.555Z,0
2017-12-16T01:05:49.241Z,0
2017-12-16T01:06:49.491Z,0
2017-12-16T01:07:49.481Z,0
2017-12-16T01:08:49.467Z,0
2017-12-16T01:09:50.006Z,0
2017-12-16T01:10:49.441Z,0
2017-12-16T01:11:49.410Z,0
2017-12-16T01:12:49.392Z,0
2017-12-16T01:13:49.115Z,0
2017-12-16T01:14:49.629Z,0
2017-12-16T01:15:49.611Z,0
2017-12-16T01:16:50.161Z,0
2017-12-16T01:17:49.575Z,0
2017-12-16T01:18:49.570Z,0
2017-12-16T01:19:49.292Z,0
2017-12-16T01:20:49.253Z,0
2017-12-16T01:21:48.980Z,0
2017-12-16T01:22:49.218Z,0
2017-12-16T01:23:49.199Z,0
2017-12-16T01:24:49.748Z,0
2017-12-16T01:25:49.164Z,0
2017-12-16T01:26:49.426Z,0
2017-12-16T01:27:49.407Z,0
2017-12-16T01:28:49.389Z,0
2017-12-16T01:29:49.646Z,0
2017-12-16T01:30:48.806Z,0
2017-12-16T01:31:49.082Z,0
2017-12-16T01:32:49.315Z,0
2017-12-16T01:33:49.336Z,0
2017-12-16T01:34:49.304Z,0
2017-12-16T01:35:49.548Z,0
2017-12-16T01:36:48.704Z,0
2017-12-16T01:37:48.957Z,0
2017-12-16T01:38:49.489Z,0
2017-12-16T01:39:48.925Z,0
2017-12-16T01:40:49.177Z,0
2017-12-16T01:41:49.176Z,0
2017-12-16T01:42:48.618Z,0
2017-12-16T01:43:48.608Z,0
2017-12-16T01:44:48.573Z,0
2017-12-16T01:45:48.839Z,0
2017-12-16T01:46:49.080Z,0
2017-12-16T01:47:49.098Z,0
2017-12-16T01:48:48.491Z,0
2017-12-16T01:49:49.060Z,0
2017-12-16T01:50:49.025Z,0
2017-12-16T01:51:48.714Z,0
2017-12-16T01:52:49.265Z,0
2017-12-16T01:53:48.965Z,0
2017-12-16T01:54:48.663Z,0
2017-12-16T01:55:49.473Z,0
2017-12-16T01:56:48.357Z,0
2017-12-16T01:57:48.886Z,0
2017-12-16T01:58:48.599Z,0
2017-12-16T01:59:48.574Z,0
2017-12-16T02:00:49.107Z,0
2017-12-16T02:01:48.272Z,0
2017-12-16T02:02:49.139Z,0
2017-12-16T02:03:48.240Z,0
2017-12-16T02:04:48.487Z,0
2017-12-16T02:05:48.198Z,0
2017-12-16T02:06:49.002Z,0
2017-12-16T02:07:48.166Z,0
2017-12-16T02:08:48.686Z,0
2017-12-16T02:09:48.152Z,0
2017-12-16T02:10:48.109Z,0
2017-12-16T02:11:48.674Z,0
2017-12-16T02:12:48.649Z,0
2017-12-16T02:13:48.608Z,0
2017-12-16T02:14:48.585Z,0
2017-12-16T02:15:48.039Z,0
2017-12-16T02:16:48.310Z,0
2017-12-16T02:17:48.266Z,0
2017-12-16T02:18:48.244Z,0
2017-12-16T02:19:48.499Z,0
2017-12-16T02:20:48.483Z,0
2017-12-16T02:21:48.736Z,0
2017-12-16T02:22:48.196Z,0
2017-12-16T02:23:48.710Z,0
2017-12-16T02:24:48.140Z,0
2017-12-16T02:25:48.128Z,0
2017-12-16T02:26:47.855Z,0
2017-12-16T02:27:48.368Z,0
2017-12-16T02:28:48.068Z,0
2017-12-16T02:29:48.056Z,0
2017-12-16T02:30:48.358Z,0
2017-12-16T02:31:48.318Z,0
2017-12-16T02:32:48.004Z,0
2017-12-16T02:33:48.005Z,0
2017-12-16T02:34:48.511Z,0
2017-12-16T02:35:47.682Z,0
2017-12-16T02:36:47.986Z,0
2017-12-16T02:37:48.192Z,0
2017-12-16T02:38:48.464Z,0
2017-12-16T02:39:48.427Z,0
2017-12-16T02:40:47.590Z,0
2017-12-16T02:41:47.892Z,0
2017-12-16T02:42:48.112Z,0
2017-12-16T02:43:47.555Z,0
2017-12-16T02:44:48.343Z,0
2017-12-16T02:45:48.048Z,0
2017-12-16T02:46:47.486Z,0
2017-12-16T02:47:48.021Z,0
2017-12-16T02:48:47.462Z,0
2017-12-16T02:49:47.705Z,0
2017-12-16T02:50:48.234Z,0
2017-12-16T02:51:47.705Z,0
2017-12-16T02:52:47.657Z,0
2017-12-16T02:53:47.915Z,0
2017-12-16T02:54:47.902Z,0
2017-12-16T02:55:47.880Z,0
2017-12-16T02:56:48.145Z,0
2017-12-16T02:57:47.564Z,0
2017-12-16T02:58:47.828Z,0
2017-12-16T02:59:47.537Z,0
2017-12-16T03:00:47.554Z,0
2017-12-16T03:01:47.509Z,0
2017-12-16T03:02:47.774Z,0
2017-12-16T03:03:47.215Z,0
2017-12-16T03:04:47.446Z,0
2017-12-16T03:05:47.430Z,0
2017-12-16T03:06:47.971Z,0
2017-12-16T03:07:47.662Z,0
2017-12-16T03:08:47.923Z,0
2017-12-16T03:09:47.358Z,0
2017-12-16T03:10:47.617Z,0
2017-12-16T03:11:47.874Z,0
2017-12-16T03:12:47.311Z,0
2017-12-16T03:13:47.561Z,0
2017-12-16T03:14:47.606Z,0
2017-12-16T03:15:46.977Z,0
2017-12-16T03:16:47.238Z,0
2017-12-16T03:17:47.512Z,0
2017-12-16T03:18:47.746Z,0
2017-12-16T03:19:47.462Z,0
2017-12-16T03:20:47.175Z,0
2017-12-16T03:21:47.449Z,0
2017-12-16T03:22:47.193Z,0
2017-12-16T03:23:47.401Z,0
2017-12-16T03:24:47.639Z,0
2017-12-16T03:25:47.396Z,0
2017-12-16T03:26:47.332Z,0
2017-12-16T03:27:47.615Z,0
2017-12-16T03:28:46.755Z,0
2017-12-16T03:29:47.560Z,0
2017-12-16T03:30:46.998Z,0
2017-12-16T03:31:47.539Z,0
2017-12-16T03:32:46.980Z,0
2017-12-16T03:33:46.935Z,0
2017-12-16T03:34:46.920Z,0
2017-12-16T03:35:46.633Z,0
2017-12-16T03:36:47.427Z,0
2017-12-16T03:37:47.141Z,0
2017-12-16T03:38:46.599Z,0
2017-12-16T03:39:47.110Z,0
2017-12-16T03:40:46.566Z,0
2017-12-16T03:41:46.847Z,0
2017-12-16T03:42:47.073Z,0
2017-12-16T03:43:46.503Z,0
2017-12-16T03:44:47.300Z,0
2017-12-16T03:45:47.008Z,0
2017-12-16T03:46:46.722Z,0
2017-12-16T03:47:46.474Z,0
2017-12-16T03:48:46.405Z,0
2017-12-16T03:49:46.663Z,0
2017-12-16T03:50:46.662Z,0
2017-12-16T03:51:46.929Z,0
2017-12-16T03:52:46.618Z,0
2017-12-16T03:53:46.872Z,0
2017-12-16T03:54:46.588Z,0
2017-12-16T03:55:46.306Z,0
2017-12-16T03:56:46.553Z,0
2017-12-16T03:57:46.814Z,0
2017-12-16T03:58:46.299Z,0
2017-12-16T03:59:46.546Z,0
2017-12-16T04:00:46.195Z,0
2017-12-16T04:01:46.173Z,0
2017-12-16T04:02:46.791Z,0
2017-12-16T04:03:46.968Z,0
2017-12-16T04:04:46.395Z,0
2017-12-16T04:05:46.666Z,0
2017-12-16T04:06:46.365Z,0
2017-12-16T04:07:46.340Z,0
2017-12-16T04:08:46.326Z,0
2017-12-16T04:09:46.904Z,0
2017-12-16T04:10:46.020Z,0
2017-12-16T04:11:46.272Z,0
2017-12-16T04:12:46.522Z,0
2017-12-16T04:13:45.963Z,0
2017-12-16T04:14:45.945Z,0
2017-12-16T04:15:46.756Z,0
2017-12-16T04:16:46.183Z,0
2017-12-16T04:17:46.438Z,0
2017-12-16T04:18:46.831Z,0
2017-12-16T04:19:46.498Z,0
2017-12-16T04:20:46.208Z,0
2017-12-16T04:21:45.821Z,0
2017-12-16T04:22:45.811Z,0
2017-12-16T04:23:46.064Z,0
2017-12-16T04:24:46.041Z,0
2017-12-16T04:25:46.062Z,0
2017-12-16T04:26:46.152Z,0
2017-12-16T04:27:45.723Z,0
2017-12-16T04:28:45.976Z,0
2017-12-16T04:29:45.958Z,0
2017-12-16T04:30:45.941Z,0
2017-12-16T04:31:45.654Z,0
2017-12-16T04:32:45.654Z,0
2017-12-16T04:33:45.884Z,0
2017-12-16T04:34:45.875Z,0
2017-12-16T04:35:45.869Z,0
2017-12-16T04:36:45.882Z,0
2017-12-16T04:37:45.812Z,0
2017-12-16T04:38:46.089Z,0
2017-12-16T04:39:45.780Z,0
2017-12-16T04:40:45.760Z,0
2017-12-16T04:41:45.471Z,0
2017-12-16T04:42:45.727Z,0
2017-12-16T04:43:46.543Z,0
2017-12-16T04:44:45.963Z,0
2017-12-16T04:45:45.681Z,0
2017-12-16T04:46:45.952Z,0
2017-12-16T04:47:45.436Z,0
2017-12-16T04:48:45.629Z,0
2017-12-16T04:49:45.892Z,0
2017-12-16T04:50:45.608Z,0
2017-12-16T04:51:45.836Z,0
2017-12-16T04:52:45.826Z,0
2017-12-16T04:53:45.268Z,0
2017-12-16T04:54:45.246Z,0
2017-12-16T04:55:45.228Z,0
2017-12-16T04:56:45.493Z,0
2017-12-16T04:57:45.477Z,0
2017-12-16T04:58:46.038Z,0
2017-12-16T04:59:45.704Z,0
2017-12-16T05:00:45.410Z,0
2017-12-16T05:01:45.673Z,0
2017-12-16T05:02:45.683Z,0
2017-12-16T05:03:45.636Z,0
2017-12-16T05:04:45.694Z,0
2017-12-16T05:05:45.324Z,0
2017-12-16T05:06:45.347Z,0
2017-12-16T05:07:45.317Z,0
2017-12-16T05:08:45.562Z,0
2017-12-16T05:09:45.543Z,0
2017-12-16T05:10:45.531Z,0
2017-12-16T05:11:45.218Z,0
2017-12-16T05:12:45.498Z,0
2017-12-16T05:13:45.468Z,0
2017-12-16T05:14:45.174Z,0
2017-12-16T05:15:45.149Z,0
2017-12-16T05:16:45.148Z,0
2017-12-16T05:17:45.114Z,0
2017-12-16T05:18:45.365Z,0
2017-12-16T05:19:45.345Z,0
2017-12-16T05:20:45.112Z,0
2017-12-16T05:21:45.050Z,0
2017-12-16T05:22:45.025Z,0
2017-12-16T05:23:45.290Z,0
2017-12-16T05:24:45.284Z,0
2017-12-16T05:25:45.269Z,0
2017-12-16T05:26:44.955Z,0
2017-12-16T05:27:45.220Z,0
2017-12-16T05:28:44.922Z,0
2017-12-16T05:29:44.904Z,0
2017-12-16T05:30:45.436Z,0
2017-12-16T05:31:44.875Z,0
2017-12-16T05:32:44.849Z,0
2017-12-16T05:33:45.380Z,0
2017-12-16T05:34:44.813Z,0
2017-12-16T05:35:44.796Z,0
2017-12-16T05:36:45.050Z,0
2017-12-16T05:37:44.515Z,0
2017-12-16T05:38:45.292Z,0
2017-12-16T05:39:44.787Z,0
2017-12-16T05:40:44.991Z,0
2017-12-16T05:41:44.966Z,0
2017-12-16T05:42:44.695Z,0
2017-12-16T05:43:44.661Z,0
2017-12-16T05:44:45.216Z,0
2017-12-16T05:45:44.645Z,0
2017-12-16T05:46:45.163Z,0
2017-12-16T05:47:45.399Z,0
2017-12-16T05:48:44.296Z,0
2017-12-16T05:49:44.552Z,0
2017-12-16T05:50:45.349Z,0
2017-12-16T05:51:44.806Z,0
2017-12-16T05:52:44.500Z,0
2017-12-16T05:53:44.486Z,0
2017-12-16T05:54:44.191Z,0
2017-12-16T05:55:44.504Z,0
2017-12-16T05:56:44.975Z,0
2017-12-16T05:57:44.418Z,0
2017-12-16T05:58:44.128Z,0
2017-12-16T05:59:44.649Z,0
2017-12-16T06:00:44.561Z,0
2017-12-16T06:01:44.357Z,0
2017-12-16T06:02:44.603Z,0
2017-12-16T06:03:44.313Z,0
2017-12-16T06:04:44.318Z,0
2017-12-16T06:05:44.545Z,0
2017-12-16T06:06:44.253Z,0
2017-12-16T06:07:44.510Z,0
2017-12-16T06:08:44.261Z,0
2017-12-16T06:09:44.205Z,0
2017-12-16T06:10:43.932Z,0
2017-12-16T06:11:44.470Z,0
2017-12-16T06:12:44.438Z,0
2017-12-16T06:13:44.147Z,0
2017-12-16T06:14:44.389Z,0
2017-12-16T06:15:44.368Z,0
2017-12-16T06:16:43.820Z,0
2017-12-16T06:17:43.805Z,0
2017-12-16T06:18:44.043Z,0
2017-12-16T06:19:44.298Z,0
2017-12-16T06:20:44.015Z,0
2017-12-16T06:21:44.261Z,0
2017-12-16T06:22:44.245Z,0
2017-12-16T06:23:44.223Z,0
2017-12-16T06:24:43.972Z,0
2017-12-16T06:25:43.674Z,0
2017-12-16T06:26:43.908Z,0
2017-12-16T06:27:44.158Z,0
2017-12-16T06:28:43.594Z,0
2017-12-16T06:29:44.123Z,0
2017-12-16T06:30:44.102Z,0
2017-12-16T06:31:43.815Z,0
2017-12-16T06:32:43.871Z,0
2017-12-16T06:33:43.779Z,0
2017-12-16T06:34:44.318Z,0
2017-12-16T06:35:43.469Z,0
2017-12-16T06:36:43.496Z,0
2017-12-16T06:37:43.746Z,0
2017-12-16T06:38:43.965Z,0
2017-12-16T06:39:43.696Z,0
2017-12-16T06:40:43.409Z,0
2017-12-16T06:41:43.640Z,0
2017-12-16T06:42:43.619Z,0
2017-12-16T06:43:43.619Z,0
2017-12-16T06:44:43.859Z,0
2017-12-16T06:45:44.117Z,0
2017-12-16T06:46:43.552Z,0
2017-12-16T06:47:44.100Z,0
2017-12-16T06:48:43.563Z,0
2017-12-16T06:49:43.517Z,0
2017-12-16T06:50:43.482Z,0
2017-12-16T06:51:43.836Z,0
2017-12-16T06:52:43.169Z,0
2017-12-16T06:53:43.439Z,0
2017-12-16T06:54:43.277Z,0
2017-12-16T06:55:43.301Z,0
2017-12-16T06:56:43.664Z,0
2017-12-16T06:57:43.436Z,0
2017-12-16T06:58:43.485Z,0
2017-12-16T06:59:43.097Z,0
2017-12-16T07:00:43.305Z,0
2017-12-16T07:01:43.054Z,0
2017-12-16T07:02:43.598Z,0
2017-12-16T07:03:43.273Z,0
2017-12-16T07:04:43.249Z,0
2017-12-16T07:05:42.946Z,0
2017-12-16T07:06:43.493Z,0
2017-12-16T07:07:43.510Z,0
2017-12-16T07:08:43.186Z,0
2017-12-16T07:09:43.438Z,0
2017-12-16T07:10:43.675Z,5
2017-12-16T07:11:43.389Z,5
2017-12-16T07:12:43.113Z,5
2017-12-16T07:13:43.079Z,5
2017-12-16T07:14:43.414Z,5
2017-12-16T07:15:43.054Z,5
2017-12-16T07:16:43.575Z,5
2017-12-16T07:17:42.738Z,5
2017-12-16T07:18:42.991Z,5
2017-12-16T07:19:43.532Z,10
2017-12-16T07:20:43.237Z,10
2017-12-16T07:21:42.666Z,10
2017-12-16T07:22:43.214Z,10
2017-12-16T07:23:42.923Z,10
2017-12-16T07:24:42.885Z,10
2017-12-16T07:25:43.144Z,10
2017-12-16T07:26:42.867Z,10
2017-12-16T07:27:43.125Z,15
2017-12-16T07:28:43.086Z,15
2017-12-16T07:29:42.847Z,15
2017-12-16T07:30:42.792Z,15
2017-12-16T07:31:43.056Z,15
2017-12-16T07:32:43.309Z,15
2017-12-16T07:33:42.737Z,20
2017-12-16T07:34:42.743Z,15
2017-12-16T07:35:43.258Z,20
2017-12-16T07:36:42.683Z,20
2017-12-16T07:37:42.936Z,20
2017-12-16T07:38:43.199Z,20
2017-12-16T07:39:42.622Z,25
2017-12-16T07:40:42.341Z,25
2017-12-16T07:41:43.156Z,25
2017-12-16T07:42:42.305Z,25
2017-12-16T07:43:42.832Z,25
2017-12-16T07:44:42.565Z,25
2017-12-16T07:45:42.526Z,25
2017-12-16T07:46:42.510Z,25
2017-12-16T07:47:43.091Z,25
2017-12-16T07:48:42.754Z,25
2017-12-16T07:49:42.999Z,30
2017-12-16T07:50:42.707Z,30
2017-12-16T07:51:42.144Z,30
2017-12-16T07:52:42.396Z,30
2017-12-16T07:53:42.980Z,30
2017-12-16T07:54:42.911Z,30
2017-12-16T07:55:42.619Z,30
2017-12-16T07:56:42.337Z,30
2017-12-16T07:57:42.600Z,30
2017-12-16T07:58:42.293Z,30
2017-12-16T07:59:42.675Z,30
2017-12-16T08:00:42.346Z,30
2017-12-16T08:01:42.519Z,30
2017-12-16T08:02:41.957Z,30
2017-12-16T08:03:42.228Z,35
2017-12-16T08:04:41.960Z,35
2017-12-16T08:05:42.493Z,30
2017-12-16T08:06:42.484Z,25
2017-12-16T08:07:42.140Z,25
2017-12-16T08:08:42.140Z,30
2017-12-16T08:09:42.922Z,30
2017-12-16T08:10:42.117Z,35
2017-12-16T08:11:42.071Z,40
2017-12-16T08:12:42.048Z,40
2017-12-16T08:13:42.077Z,40
2017-12-16T08:14:42.019Z,40
2017-12-16T08:15:41.999Z,40
2017-12-16T08:16:42.528Z,40
2017-12-16T08:17:41.711Z,45
2017-12-16T08:18:42.493Z,45
2017-12-16T08:19:42.503Z,45
2017-12-16T08:20:42.210Z,50
2017-12-16T08:21:41.643Z,50
2017-12-16T08:22:42.146Z,50
2017-12-16T08:23:41.883Z,50
2017-12-16T08:24:42.120Z,50
2017-12-16T08:25:41.551Z,55
2017-12-16T08:26:42.104Z,55
2017-12-16T08:27:41.535Z,60
2017-12-16T08:28:41.856Z,60
2017-12-16T08:29:42.592Z,60
2017-12-16T08:30:42.310Z,65
2017-12-16T08:31:41.471Z,70
2017-12-16T08:32:41.995Z,70
2017-12-16T08:33:41.687Z,70
2017-12-16T08:34:41.947Z,75
2017-12-16T08:35:41.654Z,75
2017-12-16T08:36:41.925Z,75
2017-12-16T08:37:41.917Z,75
2017-12-16T08:38:41.899Z,80
2017-12-16T08:39:41.618Z,80
2017-12-16T08:40:41.838Z,75
2017-12-16T08:41:41.841Z,70
2017-12-16T08:42:41.812Z,60
2017-12-16T08:43:42.064Z,50
2017-12-16T08:44:41.533Z,45
2017-12-16T08:45:41.500Z,35
2017-12-16T08:46:41.464Z,30
2017-12-16T08:47:42.312Z,30
2017-12-16T08:48:41.184Z,35
2017-12-16T08:49:41.415Z,50
2017-12-16T08:50:41.682Z,55
2017-12-16T08:51:41.657Z,55
2017-12-16T08:52:41.659Z,55
2017-12-16T08:53:41.647Z,55
2017-12-16T08:54:41.349Z,55
2017-12-16T08:55:41.328Z,65
2017-12-16T08:56:41.310Z,75
2017-12-16T08:57:41.547Z,75
2017-12-16T08:58:41.262Z,80
2017-12-16T08:59:40.971Z,85
2017-12-16T09:00:41.243Z,85
2017-12-16T09:01:40.936Z,95
2017-12-16T09:02:41.464Z,100
2017-12-16T09:03:41.738Z,105
2017-12-16T09:04:41.702Z,105
2017-12-16T09:05:41.175Z,100
2017-12-16T09:06:41.123Z,100
2017-12-16T09:07:41.105Z,100
2017-12-16T09:08:41.359Z,100
2017-12-16T09:09:41.081Z,100
2017-12-16T09:10:41.607Z,100
2017-12-16T09:11:41.351Z,100
2017-12-16T09:12:41.309Z,105
2017-12-16T09:13:41.010Z,105
2017-12-16T09:14:41.261Z,105
2017-12-16T09:15:40.969Z,110
2017-12-16T09:16:40.952Z,110
2017-12-16T09:17:41.500Z,115
2017-12-16T09:18:41.752Z,115
2017-12-16T09:19:41.174Z,120
2017-12-16T09:20:40.890Z,125
2017-12-16T09:21:40.595Z,130
2017-12-16T09:22:41.122Z,130
2017-12-16T09:23:40.833Z,135
2017-12-16T09:24:40.819Z,135
2017-12-16T09:25:40.546Z,140
2017-12-16T09:26:41.058Z,140
2017-12-16T09:27:40.787Z,140
2017-12-16T09:28:40.801Z,135
2017-12-16T09:29:41.292Z,130
2017-12-16T09:30:40.748Z,125
2017-12-16T09:31:40.974Z,125
2017-12-16T09:32:40.965Z,125
2017-12-16T09:33:40.959Z,125
2017-12-16T09:34:40.981Z,125
2017-12-16T09:35:40.659Z,125
2017-12-16T09:36:41.174Z,130
2017-12-16T09:37:40.627Z,130
2017-12-16T09:38:40.592Z,135
2017-12-16T09:39:40.852Z,135
2017-12-16T09:40:40.281Z,140
2017-12-16T09:41:40.536Z,145
2017-12-16T09:42:40.803Z,145
2017-12-16T09:43:40.774Z,145
2017-12-16T09:44:40.212Z,145
2017-12-16T09:45:40.198Z,150
2017-12-16T09:46:41.295Z,150
2017-12-16T09:47:40.716Z,150
2017-12-16T09:48:40.419Z,150
2017-12-16T09:49:40.952Z,150
2017-12-16T09:50:40.429Z,150
2017-12-16T09:51:40.370Z,145
2017-12-16T09:52:40.649Z,140
2017-12-16T09:53:40.608Z,135
2017-12-16T09:54:40.591Z,130
2017-12-16T09:55:40.583Z,120
2017-12-16T09:56:40.294Z,100
2017-12-16T09:57:40.020Z,95
2017-12-16T09:58:39.999Z,115
2017-12-16T09:59:40.516Z,135
2017-12-16T10:00:39.954Z,135
2017-12-16T10:01:39.931Z,130
2017-12-16T10:02:40.478Z,115
2017-12-16T10:03:40.735Z,110
2017-12-16T10:04:39.904Z,100
2017-12-16T10:05:40.704Z,110
2017-12-16T10:06:40.149Z,105
2017-12-16T10:07:39.832Z,105
2017-12-16T10:08:40.370Z,105
2017-12-16T10:09:40.658Z,110
2017-12-16T10:10:39.794Z,120
2017-12-16T10:11:40.038Z,115
2017-12-16T10:12:40.321Z,140
2017-12-16T10:13:40.024Z,140
2017-12-16T10:14:39.717Z,135
2017-12-16T10:15:39.971Z,105
2017-12-16T10:16:39.963Z,120
2017-12-16T10:17:40.488Z,140
2017-12-16T10:18:39.955Z,140
2017-12-16T10:19:40.178Z,120
2017-12-16T10:20:39.896Z,140
2017-12-16T10:21:39.879Z,145
2017-12-16T10:22:40.189Z,130
2017-12-16T10:23:39.566Z,120
2017-12-16T10:24:40.119Z,120
2017-12-16T10:25:39.808Z,150
2017-12-16T10:26:40.056Z,165
2017-12-16T10:27:39.773Z,155
2017-12-16T10:28:40.031Z,125
2017-12-16T10:29:40.015Z,100
2017-12-16T10:30:39.730Z,85
2017-12-16T10:31:40.264Z,85
2017-12-16T10:32:39.732Z,105
2017-12-16T10:33:39.690Z,130
2017-12-16T10:34:39.935Z,115
2017-12-16T10:35:39.916Z,145
2017-12-16T10:36:40.169Z,150
2017-12-16T10:37:39.668Z,150
2017-12-16T10:38:39.587Z,155
2017-12-16T10:39:40.117Z,155
2017-12-16T10:40:39.281Z,150
2017-12-16T10:41:39.739Z,150
2017-12-16T10:42:39.516Z,150
2017-12-16T10:43:39.505Z,150
2017-12-16T10:44:39.779Z,150
2017-12-16T10:45:40.017Z,145
2017-12-16T10:46:39.458Z,150
2017-12-16T10:47:39.711Z,155
2017-12-16T10:48:39.693Z,165
2017-12-16T10:49:39.723Z,175
2017-12-16T10:50:39.384Z,180
2017-12-16T10:51:39.642Z,180
2017-12-16T10:52:39.647Z,170
2017-12-16T10:53:39.348Z,170
2017-12-16T10:54:39.590Z,165
2017-12-16T10:55:39.297Z,170
2017-12-16T10:56:39.288Z,175
2017-12-16T10:57:39.533Z,170
2017-12-16T10:58:39.247Z,180
2017-12-16T10:59:38.961Z,180
2017-12-16T11:00:38.940Z,165
2017-12-16T11:01:39.202Z,165
2017-12-16T11:02:39.725Z,155
2017-12-16T11:03:39.169Z,155
2017-12-16T11:04:39.423Z,145
2017-12-16T11:05:39.403Z,150
2017-12-16T11:06:39.691Z,160
2017-12-16T11:07:39.369Z,170
2017-12-16T11:08:39.353Z,170
2017-12-16T11:09:39.643Z,170
2017-12-16T11:10:39.326Z,160
2017-12-16T11:11:39.314Z,150
2017-12-16T11:12:39.015Z,145
2017-12-16T11:13:38.993Z,155
2017-12-16T11:14:39.258Z,160
2017-12-16T11:15:39.556Z,155
2017-12-16T11:16:39.255Z,150
2017-12-16T11:17:39.203Z,140
2017-12-16T11:18:39.199Z,160
2017-12-16T11:19:38.907Z,175
2017-12-16T11:20:38.877Z,165
2017-12-16T11:21:38.865Z,150
2017-12-16T11:22:39.135Z,160
2017-12-16T11:23:38.560Z,165
2017-12-16T11:24:38.809Z,160
2017-12-16T11:25:39.062Z,145
2017-12-16T11:26:38.790Z,135
2017-12-16T11:27:38.496Z,120
2017-12-16T11:28:39.021Z,120
2017-12-16T11:29:38.740Z,130
2017-12-16T11:30:38.711Z,115
2017-12-16T11:31:38.961Z,120
2017-12-16T11:32:38.948Z,110
2017-12-16T11:33:38.669Z,95
2017-12-16T11:34:39.077Z,90
2017-12-16T11:35:39.186Z,90
2017-12-16T11:36:38.891Z,95
2017-12-16T11:37:38.883Z,100
2017-12-16T11:38:38.317Z,105
2017-12-16T11:39:38.574Z,105
2017-12-16T11:40:38.280Z,105
2017-12-16T11:41:38.520Z,105
2017-12-16T11:42:38.227Z,110
2017-12-16T11:43:38.763Z,110
2017-12-16T11:44:38.483Z,110
2017-12-16T11:45:38.182Z,115
2017-12-16T11:46:38.450Z,110
2017-12-16T11:47:38.415Z,115
2017-12-16T11:48:38.400Z,115
2017-12-16T11:49:38.115Z,120
2017-12-16T11:50:38.388Z,125
2017-12-16T11:51:38.907Z,125
2017-12-16T11:52:38.872Z,125
2017-12-16T11:53:38.592Z,125
2017-12-16T11:54:38.587Z,125
2017-12-16T11:55:38.861Z,125
2017-12-16T11:56:38.556Z,125
2017-12-16T11:57:38.517Z,125
2017-12-16T11:58:38.551Z,120
2017-12-16T11:59:38.853Z,120
2017-12-16T12:00:38.270Z,120
2017-12-16T12:01:38.251Z,125
2017-12-16T12:02:38.437Z,130
2017-12-16T12:03:38.160Z,140
2017-12-16T12:04:38.412Z,140
2017-12-16T12:05:38.652Z,145
2017-12-16T12:06:38.406Z,145
2017-12-16T12:07:38.353Z,145
2017-12-16T12:08:37.793Z,145
2017-12-16T12:09:38.073Z,145
2017-12-16T12:10:38.022Z,145
2017-12-16T12:11:38.025Z,145
2017-12-16T12:12:38.271Z,150
2017-12-16T12:13:37.997Z,150
2017-12-16T12:14:37.988Z,150
2017-12-16T12:15:37.671Z,150
2017-12-16T12:16:37.978Z,150
2017-12-16T12:17:38.460Z,150
2017-12-16T12:18:38.173Z,145
2017-12-16T12:19:37.931Z,150
2017-12-16T12:20:38.147Z,150
2017-12-16T12:21:37.868Z,155
2017-12-16T12:22:37.893Z,155
2017-12-16T12:23:37.535Z,150
2017-12-16T12:24:37.802Z,145
2017-12-16T12:25:38.337Z,135
2017-12-16T12:26:38.064Z,130
2017-12-16T12:27:37.742Z,130
2017-12-16T12:28:38.385Z,135
2017-12-16T12:29:37.709Z,145
2017-12-16T12:30:37.417Z,145
2017-12-16T12:31:38.036Z,150
2017-12-16T12:32:38.008Z,155
2017-12-16T12:33:37.683Z,160
2017-12-16T12:34:37.664Z,165
2017-12-16T12:35:37.630Z,155
2017-12-16T12:36:37.876Z,145
2017-12-16T12:37:37.850Z,160
2017-12-16T12:38:37.591Z,170
2017-12-16T12:39:37.544Z,180
2017-12-16T12:40:37.535Z,180
2017-12-16T12:41:37.513Z,160
2017-12-16T12:42:37.511Z,145
2017-12-16T12:43:37.512Z,140
2017-12-16T12:44:38.042Z,140
2017-12-16T12:45:37.726Z,130
2017-12-16T12:46:38.302Z,130
2017-12-16T12:47:37.748Z,140
2017-12-16T12:48:37.417Z,165
2017-12-16T12:49:37.407Z,155
2017-12-16T12:50:37.491Z,155
2017-12-16T12:51:37.651Z,155
2017-12-16T12:52:37.074Z,135
2017-12-16T12:53:37.203Z,120
2017-12-16T12:54:37.295Z,125
2017-12-16T12:55:37.294Z,125
2017-12-16T12:56:37.284Z,125
2017-12-16T12:57:37.534Z,130
2017-12-16T12:58:37.249Z,130
2017-12-16T12:59:37.762Z,125
2017-12-16T13:00:37.467Z,115
2017-12-16T13:01:37.257Z,120
2017-12-16T13:02:37.454Z,125
2017-12-16T13:03:37.434Z,125
2017-12-16T13:04:37.450Z,125
2017-12-16T13:05:37.119Z,120
2017-12-16T13:06:37.098Z,110
2017-12-16T13:07:37.077Z,95
2017-12-16T13:08:37.335Z,80
2017-12-16T13:09:37.060Z,75
2017-12-16T13:10:37.042Z,70
2017-12-16T13:11:37.280Z,60
2017-12-16T13:12:37.081Z,60
2017-12-16T13:13:36.974Z,55
2017-12-16T13:14:36.977Z,45
2017-12-16T13:15:36.729Z,40
2017-12-16T13:16:37.201Z,40
2017-12-16T13:17:36.920Z,40
2017-12-16T13:18:37.176Z,45
2017-12-16T13:19:36.899Z,45
2017-12-16T13:20:37.420Z,45
2017-12-16T13:21:36.572Z,45
2017-12-16T13:22:36.858Z,50
2017-12-16T13:23:37.360Z,50
2017-12-16T13:24:36.795Z,45
2017-12-16T13:25:36.504Z,40
2017-12-16T13:26:36.769Z,40
2017-12-16T13:27:36.793Z,40
2017-12-16T13:28:37.003Z,30
2017-12-16T13:29:36.438Z,30
2017-12-16T13:30:37.001Z,30
2017-12-16T13:31:36.679Z,30
2017-12-16T13:32:37.239Z,30
2017-12-16T13:33:37.479Z,30
2017-12-16T13:34:36.626Z,25
2017-12-16T13:35:37.173Z,20
2017-12-16T13:36:36.318Z,15
2017-12-16T13:37:36.573Z,15
2017-12-16T13:38:36.871Z,15
2017-12-16T13:39:36.554Z,15
2017-12-16T13:40:36.521Z,15
2017-12-16T13:41:36.538Z,15
2017-12-16T13:42:36.546Z,15
2017-12-16T13:43:37.027Z,15
2017-12-16T13:44:36.740Z,10
2017-12-16T13:45:36.503Z,10
2017-12-16T13:46:36.714Z,10
2017-12-16T13:47:36.702Z,10
2017-12-16T13:48:36.393Z,10
2017-12-16T13:49:36.378Z,10
2017-12-16T13:50:36.369Z,10
2017-12-16T13:51:36.878Z,10
2017-12-16T13:52:36.954Z,10
2017-12-16T13:53:36.043Z,10
2017-12-16T13:54:36.566Z,10
2017-12-16T13:55:35.995Z,10
2017-12-16T13:56:36.265Z,10
2017-12-16T13:57:36.236Z,10
2017-12-16T13:58:36.481Z,10
2017-12-16T13:59:36.197Z,10
2017-12-16T14:00:36.752Z,10
2017-12-16T14:01:36.179Z,10
2017-12-16T14:02:36.188Z,10
2017-12-16T14:03:36.127Z,10
2017-12-16T14:04:36.688Z,10
2017-12-16T14:05:36.376Z,10
2017-12-16T14:06:36.085Z,10
2017-12-16T14:07:36.892Z,10
2017-12-16T14:08:36.313Z,10
2017-12-16T14:09:36.039Z,10
2017-12-16T14:10:36.562Z,15
2017-12-16T14:11:35.739Z,15
2017-12-16T14:12:36.000Z,15
2017-12-16T14:13:35.990Z,15
2017-12-16T14:14:36.206Z,15
2017-12-16T14:15:35.940Z,15
2017-12-16T14:16:35.902Z,15
2017-12-16T14:17:36.174Z,15
2017-12-16T14:18:36.151Z,15
2017-12-16T14:19:35.858Z,20
2017-12-16T14:20:36.116Z,20
2017-12-16T14:21:35.866Z,20
2017-12-16T14:22:36.103Z,20